Time;durP1;ratioP1;P1;durP2;ratioP2;P2;SDS_P1;SDS_P2;PMS_P1;PMS_P2;Temp;Humidity;BMP_temperature;BMP_pressure;BME280_temperature;BME280_humidity;BME280_pressure;Samples;Min_cycle;Max_cycle;Signal;HPM_P1;HPM_P2
2022/05/22 00:00:56;;;;;;;4.6;3.85;;;;;;;13.6;58.56348;95518.7;;;;
2022/05/22 00:01:56;;;;;;;4.6;3.85;;;;;;;13.6;58.56348;95518.7;;;;
2022/05/22 00:02:57;;;;;;;4.6;3.85;;;;;;;13.6;58.56348;95518.7;;;;
2022/05/22 00:03:58;;;;;;;4.6;3.85;;;;;;;13.6;58.56348;95518.7;;;;
2022/05/22 00:04:58;;;;;;;4.149999;3.75;;;;;;;13.64;59.01367;95513.75;;;;
2022/05/22 00:05:59;;;;;;;4.149999;3.75;;;;;;;13.64;59.01367;95513.75;;;;
2022/05/22 00:06:59;;;;;;;4.149999;3.75;;;;;;;13.64;59.01367;95513.75;;;;
2022/05/22 00:08:00;;;;;;;4.149999;3.75;;;;;;;13.64;59.01367;95513.75;;;;
2022/05/22 00:09:00;;;;;;;4.149999;3.75;;;;;;;13.64;59.01367;95513.75;;;;
2022/05/22 00:10:01;;;;;;;4.149999;3.75;;;;;;;13.64;59.01367;95513.75;;;;
2022/05/22 00:11:02;;;;;;;4.149999;3.75;;;;;;;13.64;59.01367;95513.75;;;;
2022/05/22 00:12:03;;;;;;;4.149999;3.75;;;;;;;13.64;59.01367;95513.75;;;;
2022/05/22 00:13:07;;;;;;;4.149999;3.75;;;;;;;13.64;59.01367;95513.75;;;;
2022/05/22 00:14:07;;;;;;;4.149999;3.75;;;;;;;13.64;59.01367;95513.75;;;;
2022/05/22 00:15:08;;;;;;;5.35;3.9;;;;;;;13.67;59.35547;95502.15;;;;
2022/05/22 00:16:46;;;;;;;5.35;3.9;;;;;;;13.67;59.35547;95502.15;;;;
2022/05/22 00:17:48;;;;;;;5.35;3.9;;;;;;;13.67;59.35547;95502.15;;;;
2022/05/22 00:18:48;;;;;;;5.35;3.9;;;;;;;13.67;59.35547;95502.15;;;;
2022/05/22 00:19:49;;;;;;;5.35;3.9;;;;;;;13.67;59.35547;95502.15;;;;
2022/05/22 00:20:49;;;;;;;5.35;3.9;;;;;;;13.67;59.35547;95502.15;;;;
2022/05/22 00:21:49;;;;;;;5.35;3.9;;;;;;;13.67;59.35547;95502.15;;;;
2022/05/22 00:22:51;;;;;;;5.35;3.9;;;;;;;13.67;59.35547;95502.15;;;;
2022/05/22 00:23:52;;;;;;;5.35;3.9;;;;;;;13.67;59.35547;95502.15;;;;
2022/05/22 00:24:52;;;;;;;5.35;3.9;;;;;;;13.67;59.35547;95502.15;;;;
2022/05/22 00:25:53;;;;;;;5.35;3.9;;;;;;;13.67;59.35547;95502.15;;;;
2022/05/22 00:26:55;;;;;;;5.35;3.9;;;;;;;13.67;59.35547;95502.15;;;;
2022/05/22 00:27:56;;;;;;;5.35;3.9;;;;;;;13.67;59.35547;95502.15;;;;
2022/05/22 00:28:58;;;;;;;5.35;3.9;;;;;;;13.67;59.35547;95502.15;;;;
2022/05/22 00:29:58;;;;;;;5.35;3.9;;;;;;;13.67;59.35547;95502.15;;;;
2022/05/22 00:31:00;;;;;;;5.35;3.9;;;;;;;13.67;59.35547;95502.15;;;;
2022/05/22 00:32:00;;;;;;;5.35;3.9;;;;;;;13.67;59.35547;95502.15;;;;
2022/05/22 00:33:02;;;;;;;5.35;3.9;;;;;;;13.67;59.35547;95502.15;;;;
2022/05/22 00:34:03;;;;;;;5.35;3.9;;;;;;;13.67;59.35547;95502.15;;;;
2022/05/22 00:35:03;;;;;;;5.35;3.9;;;;;;;13.67;59.35547;95502.15;;;;
2022/05/22 00:36:05;;;;;;;5.35;3.9;;;;;;;13.67;59.35547;95502.15;;;;
2022/05/22 00:37:06;;;;;;;5.1;4;;;;;;;13.3;60.43652;95497.13;;;;
2022/05/22 00:38:07;;;;;;;5.1;4;;;;;;;13.3;60.43652;95497.13;;;;
2022/05/22 00:39:08;;;;;;;5.1;4;;;;;;;13.3;60.43652;95497.13;;;;
2022/05/22 00:40:08;;;;;;;5.1;4;;;;;;;13.3;60.43652;95497.13;;;;
2022/05/22 00:41:09;;;;;;;5.1;4;;;;;;;13.3;60.43652;95497.13;;;;
2022/05/22 00:42:11;;;;;;;5.1;4;;;;;;;13.3;60.43652;95497.13;;;;
2022/05/22 00:43:17;;;;;;;5.1;4;;;;;;;13.3;60.43652;95497.13;;;;
2022/05/22 00:44:27;;;;;;;5.1;4;;;;;;;13.3;60.43652;95497.13;;;;
2022/05/22 00:45:28;;;;;;;5.1;4;;;;;;;13.3;60.43652;95497.13;;;;
2022/05/22 00:46:29;;;;;;;5.1;4;;;;;;;13.3;60.43652;95497.13;;;;
2022/05/22 00:47:30;;;;;;;5.55;4.699999;;;;;;;13.08;60.93848;95467.99;;;;
2022/05/22 00:48:31;;;;;;;5.55;4.699999;;;;;;;13.08;60.93848;95467.99;;;;
2022/05/22 00:49:33;;;;;;;5.55;4.699999;;;;;;;13.08;60.93848;95467.99;;;;
2022/05/22 00:50:34;;;;;;;5.55;4.699999;;;;;;;13.08;60.93848;95467.99;;;;
2022/05/22 00:51:34;;;;;;;5.55;4.699999;;;;;;;13.08;60.93848;95467.99;;;;
2022/05/22 00:52:38;;;;;;;5.55;4.699999;;;;;;;13.08;60.93848;95467.99;;;;
2022/05/22 00:53:43;;;;;;;5.55;4.699999;;;;;;;13.08;60.93848;95467.99;;;;
2022/05/22 00:54:48;;;;;;;5.55;4.699999;;;;;;;13.08;60.93848;95467.99;;;;
2022/05/22 00:55:53;;;;;;;5.55;4.699999;;;;;;;13.08;60.93848;95467.99;;;;
2022/05/22 00:56:54;;;;;;;5.55;4.699999;;;;;;;13.08;60.93848;95467.99;;;;
2022/05/22 00:57:58;;;;;;;6.849999;4.699999;;;;;;;12.94;61.41895;95455.47;;;;
2022/05/22 00:59:01;;;;;;;6.849999;4.699999;;;;;;;12.94;61.41895;95455.47;;;;
2022/05/22 01:00:07;;;;;;;6.849999;4.699999;;;;;;;12.94;61.41895;95455.47;;;;
2022/05/22 01:01:12;;;;;;;6.849999;4.699999;;;;;;;12.94;61.41895;95455.47;;;;
2022/05/22 01:02:15;;;;;;;6.849999;4.699999;;;;;;;12.94;61.41895;95455.47;;;;
2022/05/22 01:03:27;;;;;;;6.849999;4.699999;;;;;;;12.94;61.41895;95455.47;;;;
2022/05/22 01:04:28;;;;;;;6.849999;4.699999;;;;;;;12.94;61.41895;95455.47;;;;
2022/05/22 01:05:31;;;;;;;6.849999;4.699999;;;;;;;12.94;61.41895;95455.47;;;;
2022/05/22 01:06:33;;;;;;;6.849999;4.699999;;;;;;;12.94;61.41895;95455.47;;;;
2022/05/22 01:07:34;;;;;;;6.849999;4.699999;;;;;;;12.94;61.41895;95455.47;;;;
2022/05/22 01:08:34;;;;;;;6.1;4.349999;;;;;;;12.78;61.86328;95464.95;;;;
2022/05/22 01:09:37;;;;;;;6.1;4.349999;;;;;;;12.78;61.86328;95464.95;;;;
2022/05/22 01:10:37;;;;;;;6.1;4.349999;;;;;;;12.78;61.86328;95464.95;;;;
2022/05/22 01:11:43;;;;;;;6.1;4.349999;;;;;;;12.78;61.86328;95464.95;;;;
2022/05/22 01:12:44;;;;;;;6.1;4.349999;;;;;;;12.78;61.86328;95464.95;;;;
2022/05/22 01:13:46;;;;;;;6.1;4.349999;;;;;;;12.78;61.86328;95464.95;;;;
2022/05/22 01:14:50;;;;;;;6.1;4.349999;;;;;;;12.78;61.86328;95464.95;;;;
2022/05/22 01:15:51;;;;;;;6.1;4.349999;;;;;;;12.78;61.86328;95464.95;;;;
2022/05/22 01:16:52;;;;;;;6.1;4.349999;;;;;;;12.78;61.86328;95464.95;;;;
2022/05/22 01:17:53;;;;;;;6.1;4.349999;;;;;;;12.78;61.86328;95464.95;;;;
2022/05/22 01:18:54;;;;;;;6.1;4.349999;;;;;;;12.78;61.86328;95464.95;;;;
2022/05/22 01:19:56;;;;;;;4.65;4.15;;;;;;;12.73;62.29102;95462.55;;;;
2022/05/22 01:21:00;;;;;;;4.65;4.15;;;;;;;12.73;62.29102;95462.55;;;;
2022/05/22 01:22:00;;;;;;;4.65;4.15;;;;;;;12.73;62.29102;95462.55;;;;
2022/05/22 01:23:04;;;;;;;4.65;4.15;;;;;;;12.73;62.29102;95462.55;;;;
2022/05/22 01:24:04;;;;;;;4.65;4.15;;;;;;;12.73;62.29102;95462.55;;;;
2022/05/22 01:25:06;;;;;;;4.65;4.15;;;;;;;12.73;62.29102;95462.55;;;;
2022/05/22 01:26:08;;;;;;;4.65;4.15;;;;;;;12.73;62.29102;95462.55;;;;
2022/05/22 01:27:09;;;;;;;4.65;4.15;;;;;;;12.73;62.29102;95462.55;;;;
2022/05/22 01:28:15;;;;;;;4.65;4.15;;;;;;;12.73;62.29102;95462.55;;;;
2022/05/22 01:29:18;;;;;;;4.65;4.15;;;;;;;12.73;62.29102;95462.55;;;;
2022/05/22 01:30:19;;;;;;;4.450001;4.050001;;;;;;;12.59;62.74805;95467.21;;;;
2022/05/22 01:31:23;;;;;;;4.450001;4.050001;;;;;;;12.59;62.74805;95467.21;;;;
2022/05/22 01:32:23;;;;;;;4.450001;4.050001;;;;;;;12.59;62.74805;95467.21;;;;
2022/05/22 01:33:24;;;;;;;4.450001;4.050001;;;;;;;12.59;62.74805;95467.21;;;;
2022/05/22 01:34:24;;;;;;;4.450001;4.050001;;;;;;;12.59;62.74805;95467.21;;;;
2022/05/22 01:35:25;;;;;;;4.450001;4.050001;;;;;;;12.59;62.74805;95467.21;;;;
2022/05/22 01:36:27;;;;;;;4.450001;4.050001;;;;;;;12.59;62.74805;95467.21;;;;
2022/05/22 01:37:28;;;;;;;4.450001;4.050001;;;;;;;12.59;62.74805;95467.21;;;;
2022/05/22 01:38:28;;;;;;;4.450001;4.050001;;;;;;;12.59;62.74805;95467.21;;;;
2022/05/22 01:39:29;;;;;;;4.450001;4.050001;;;;;;;12.59;62.74805;95467.21;;;;
2022/05/22 01:40:29;;;;;;;4.450001;4.050001;;;;;;;12.59;62.74805;95467.21;;;;
2022/05/22 01:41:30;;;;;;;5.349999;4.45;;;;;;;12.55;63.14258;95474.47;;;;
2022/05/22 01:42:30;;;;;;;5.349999;4.45;;;;;;;12.55;63.14258;95474.47;;;;
2022/05/22 01:43:31;;;;;;;5.349999;4.45;;;;;;;12.55;63.14258;95474.47;;;;
2022/05/22 01:44:32;;;;;;;5.349999;4.45;;;;;;;12.55;63.14258;95474.47;;;;
2022/05/22 01:45:32;;;;;;;5.349999;4.45;;;;;;;12.55;63.14258;95474.47;;;;
2022/05/22 01:46:33;;;;;;;5.349999;4.45;;;;;;;12.55;63.14258;95474.47;;;;
2022/05/22 01:47:33;;;;;;;5.349999;4.45;;;;;;;12.55;63.14258;95474.47;;;;
2022/05/22 01:48:35;;;;;;;5.349999;4.45;;;;;;;12.55;63.14258;95474.47;;;;
2022/05/22 01:49:35;;;;;;;5.349999;4.45;;;;;;;12.55;63.14258;95474.47;;;;
2022/05/22 01:50:36;;;;;;;5.349999;4.45;;;;;;;12.55;63.14258;95474.47;;;;
2022/05/22 01:51:37;;;;;;;4.849999;4.349999;;;;;;;12.39;63.55371;95461.77;;;;
2022/05/22 01:52:41;;;;;;;4.849999;4.349999;;;;;;;12.39;63.55371;95461.77;;;;
2022/05/22 01:53:41;;;;;;;4.849999;4.349999;;;;;;;12.39;63.55371;95461.77;;;;
2022/05/22 01:54:42;;;;;;;4.849999;4.349999;;;;;;;12.39;63.55371;95461.77;;;;
2022/05/22 01:55:42;;;;;;;4.849999;4.349999;;;;;;;12.39;63.55371;95461.77;;;;
2022/05/22 01:56:43;;;;;;;4.849999;4.349999;;;;;;;12.39;63.55371;95461.77;;;;
2022/05/22 01:57:43;;;;;;;4.849999;4.349999;;;;;;;12.39;63.55371;95461.77;;;;
2022/05/22 01:58:44;;;;;;;4.849999;4.349999;;;;;;;12.39;63.55371;95461.77;;;;
2022/05/22 01:59:44;;;;;;;4.849999;4.349999;;;;;;;12.39;63.55371;95461.77;;;;
2022/05/22 02:00:45;;;;;;;4.849999;4.349999;;;;;;;12.39;63.55371;95461.77;;;;
2022/05/22 02:01:45;;;;;;;4.849999;4.349999;;;;;;;12.39;63.55371;95461.77;;;;
2022/05/22 02:02:46;;;;;;;5;4.5;;;;;;;12.22;64.07227;95462.87;;;;
2022/05/22 02:03:47;;;;;;;5;4.5;;;;;;;12.22;64.07227;95462.87;;;;
2022/05/22 02:04:48;;;;;;;5;4.5;;;;;;;12.22;64.07227;95462.87;;;;
2022/05/22 02:05:49;;;;;;;5;4.5;;;;;;;12.22;64.07227;95462.87;;;;
2022/05/22 02:12:05;;;;;;;5;4.5;;;;;;;12.22;64.07227;95462.87;;;;
2022/05/22 02:13:07;;;;;;;5;4.5;;;;;;;12.22;64.07227;95462.87;;;;
2022/05/22 02:14:08;;;;;;;5;4.5;;;;;;;12.22;64.07227;95462.87;;;;
2022/05/22 02:15:08;;;;;;;5;4.5;;;;;;;12.22;64.07227;95462.87;;;;
2022/05/22 02:16:09;;;;;;;5;4.5;;;;;;;12.22;64.07227;95462.87;;;;
2022/05/22 02:17:10;;;;;;;5;4.5;;;;;;;12.22;64.07227;95462.87;;;;
2022/05/22 02:18:11;;;;;;;5;4.5;;;;;;;12.22;64.07227;95462.87;;;;
2022/05/22 02:19:12;;;;;;;5;4.5;;;;;;;12.22;64.07227;95462.87;;;;
2022/05/22 02:20:12;;;;;;;5;4.5;;;;;;;12.22;64.07227;95462.87;;;;
2022/05/22 02:21:12;;;;;;;5;4.5;;;;;;;12.22;64.07227;95462.87;;;;
2022/05/22 02:22:13;;;;;;;5;4.5;;;;;;;12.22;64.07227;95462.87;;;;
2022/05/22 02:23:13;;;;;;;5.6;4.55;;;;;;;11.89;65.0293;95435.41;;;;
2022/05/22 02:24:16;;;;;;;5.6;4.55;;;;;;;11.89;65.0293;95435.41;;;;
2022/05/22 02:25:17;;;;;;;5.6;4.55;;;;;;;11.89;65.0293;95435.41;;;;
2022/05/22 02:26:21;;;;;;;5.6;4.55;;;;;;;11.89;65.0293;95435.41;;;;
2022/05/22 02:27:21;;;;;;;5.6;4.55;;;;;;;11.89;65.0293;95435.41;;;;
2022/05/22 02:28:22;;;;;;;5.6;4.55;;;;;;;11.89;65.0293;95435.41;;;;
2022/05/22 02:29:24;;;;;;;5.6;4.55;;;;;;;11.89;65.0293;95435.41;;;;
2022/05/22 02:30:26;;;;;;;5.6;4.55;;;;;;;11.89;65.0293;95435.41;;;;
2022/05/22 02:31:29;;;;;;;5.6;4.55;;;;;;;11.89;65.0293;95435.41;;;;
2022/05/22 02:32:30;;;;;;;5.6;4.55;;;;;;;11.89;65.0293;95435.41;;;;
2022/05/22 02:33:30;;;;;;;5.6;4.55;;;;;;;11.89;65.0293;95435.41;;;;
2022/05/22 02:34:32;;;;;;;6.849999;4.15;;;;;;;11.72;65.4043;95428.91;;;;
2022/05/22 02:35:33;;;;;;;6.849999;4.15;;;;;;;11.72;65.4043;95428.91;;;;
2022/05/22 02:36:33;;;;;;;6.849999;4.15;;;;;;;11.72;65.4043;95428.91;;;;
2022/05/22 02:37:33;;;;;;;6.849999;4.15;;;;;;;11.72;65.4043;95428.91;;;;
2022/05/22 02:38:39;;;;;;;6.849999;4.15;;;;;;;11.72;65.4043;95428.91;;;;
2022/05/22 02:39:40;;;;;;;6.849999;4.15;;;;;;;11.72;65.4043;95428.91;;;;
2022/05/22 02:40:41;;;;;;;6.849999;4.15;;;;;;;11.72;65.4043;95428.91;;;;
2022/05/22 02:41:41;;;;;;;6.849999;4.15;;;;;;;11.72;65.4043;95428.91;;;;
2022/05/22 02:42:42;;;;;;;6.849999;4.15;;;;;;;11.72;65.4043;95428.91;;;;
2022/05/22 02:43:45;;;;;;;6.849999;4.15;;;;;;;11.72;65.4043;95428.91;;;;
2022/05/22 02:44:46;;;;;;;5.25;4.149999;;;;;;;11.64;65.69434;95416.44;;;;
2022/05/22 02:45:46;;;;;;;5.25;4.149999;;;;;;;11.64;65.69434;95416.44;;;;
2022/05/22 02:46:47;;;;;;;5.25;4.149999;;;;;;;11.64;65.69434;95416.44;;;;
2022/05/22 02:47:47;;;;;;;5.25;4.149999;;;;;;;11.64;65.69434;95416.44;;;;
2022/05/22 02:48:48;;;;;;;5.25;4.149999;;;;;;;11.64;65.69434;95416.44;;;;
2022/05/22 02:49:48;;;;;;;5.25;4.149999;;;;;;;11.64;65.69434;95416.44;;;;
2022/05/22 02:50:49;;;;;;;5.25;4.149999;;;;;;;11.64;65.69434;95416.44;;;;
2022/05/22 02:51:49;;;;;;;5.25;4.149999;;;;;;;11.64;65.69434;95416.44;;;;
2022/05/22 02:52:50;;;;;;;5.25;4.149999;;;;;;;11.64;65.69434;95416.44;;;;
2022/05/22 02:53:51;;;;;;;5.25;4.149999;;;;;;;11.64;65.69434;95416.44;;;;
2022/05/22 02:54:52;;;;;;;5.25;4.149999;;;;;;;11.64;65.69434;95416.44;;;;
2022/05/22 02:55:52;;;;;;;4.450001;4.050001;;;;;;;11.44;65.97852;95415.34;;;;
2022/05/22 02:56:53;;;;;;;4.450001;4.050001;;;;;;;11.44;65.97852;95415.34;;;;
2022/05/22 02:57:53;;;;;;;4.450001;4.050001;;;;;;;11.44;65.97852;95415.34;;;;
2022/05/22 02:58:54;;;;;;;4.450001;4.050001;;;;;;;11.44;65.97852;95415.34;;;;
2022/05/22 02:59:54;;;;;;;4.450001;4.050001;;;;;;;11.44;65.97852;95415.34;;;;
2022/05/22 03:00:55;;;;;;;4.450001;4.050001;;;;;;;11.44;65.97852;95415.34;;;;
2022/05/22 03:01:55;;;;;;;4.450001;4.050001;;;;;;;11.44;65.97852;95415.34;;;;
2022/05/22 03:02:56;;;;;;;4.450001;4.050001;;;;;;;11.44;65.97852;95415.34;;;;
2022/05/22 03:03:57;;;;;;;4.450001;4.050001;;;;;;;11.44;65.97852;95415.34;;;;
2022/05/22 03:04:57;;;;;;;4.450001;4.050001;;;;;;;11.44;65.97852;95415.34;;;;
2022/05/22 03:07:03;;;;;;;7.15;4.55;;;;;;;11.32;66.43555;95430.27;;;;
2022/05/22 03:08:04;;;;;;;7.15;4.55;;;;;;;11.32;66.43555;95430.27;;;;
2022/05/22 03:09:04;;;;;;;7.15;4.55;;;;;;;11.32;66.43555;95430.27;;;;
2022/05/22 03:10:06;;;;;;;7.15;4.55;;;;;;;11.32;66.43555;95430.27;;;;
2022/05/22 03:11:10;;;;;;;7.15;4.55;;;;;;;11.32;66.43555;95430.27;;;;
2022/05/22 03:12:11;;;;;;;7.15;4.55;;;;;;;11.32;66.43555;95430.27;;;;
2022/05/22 03:13:14;;;;;;;7.15;4.55;;;;;;;11.32;66.43555;95430.27;;;;
2022/05/22 03:14:15;;;;;;;7.15;4.55;;;;;;;11.32;66.43555;95430.27;;;;
2022/05/22 03:15:16;;;;;;;7.15;4.55;;;;;;;11.32;66.43555;95430.27;;;;
2022/05/22 03:16:17;;;;;;;7.15;4.55;;;;;;;11.32;66.43555;95430.27;;;;
2022/05/22 03:17:18;;;;;;;5.4;4.45;;;;;;;11.14;66.7002;95430.57;;;;
2022/05/22 03:18:19;;;;;;;5.4;4.45;;;;;;;11.14;66.7002;95430.57;;;;
2022/05/22 03:19:19;;;;;;;5.4;4.45;;;;;;;11.14;66.7002;95430.57;;;;
2022/05/22 03:20:20;;;;;;;5.4;4.45;;;;;;;11.14;66.7002;95430.57;;;;
2022/05/22 03:21:20;;;;;;;5.4;4.45;;;;;;;11.14;66.7002;95430.57;;;;
2022/05/22 03:22:21;;;;;;;5.4;4.45;;;;;;;11.14;66.7002;95430.57;;;;
2022/05/22 03:23:22;;;;;;;5.4;4.45;;;;;;;11.14;66.7002;95430.57;;;;
2022/05/22 03:24:22;;;;;;;5.4;4.45;;;;;;;11.14;66.7002;95430.57;;;;
2022/05/22 03:25:23;;;;;;;5.4;4.45;;;;;;;11.14;66.7002;95430.57;;;;
2022/05/22 03:26:23;;;;;;;5.4;4.45;;;;;;;11.14;66.7002;95430.57;;;;
2022/05/22 03:27:24;;;;;;;5.4;4.45;;;;;;;11.14;66.7002;95430.57;;;;
2022/05/22 03:28:25;;;;;;;5.4;4.45;;;;;;;11.14;66.7002;95430.57;;;;
2022/05/22 03:29:25;;;;;;;5.4;4.45;;;;;;;11.14;66.7002;95430.57;;;;
2022/05/22 03:30:26;;;;;;;5.4;4.45;;;;;;;11.14;66.7002;95430.57;;;;
2022/05/22 03:31:26;;;;;;;5.4;4.45;;;;;;;11.14;66.7002;95430.57;;;;
2022/05/22 03:32:28;;;;;;;5.4;4.45;;;;;;;11.14;66.7002;95430.57;;;;
2022/05/22 03:33:29;;;;;;;5.4;4.45;;;;;;;11.14;66.7002;95430.57;;;;
2022/05/22 03:34:29;;;;;;;5.4;4.45;;;;;;;11.14;66.7002;95430.57;;;;
2022/05/22 03:35:30;;;;;;;5.4;4.45;;;;;;;11.14;66.7002;95430.57;;;;
2022/05/22 03:36:31;;;;;;;5.4;4.45;;;;;;;11.14;66.7002;95430.57;;;;
2022/05/22 03:37:31;;;;;;;5.4;4.45;;;;;;;11.14;66.7002;95430.57;;;;
2022/05/22 03:38:32;;;;;;;4.75;4.349999;;;;;;;10.89;67.31934;95414.64;;;;
2022/05/22 03:39:32;;;;;;;4.75;4.349999;;;;;;;10.89;67.31934;95414.64;;;;
2022/05/22 03:40:33;;;;;;;4.75;4.349999;;;;;;;10.89;67.31934;95414.64;;;;
2022/05/22 03:41:37;;;;;;;4.75;4.349999;;;;;;;10.89;67.31934;95414.64;;;;
2022/05/22 03:42:38;;;;;;;4.75;4.349999;;;;;;;10.89;67.31934;95414.64;;;;
2022/05/22 03:43:38;;;;;;;4.75;4.349999;;;;;;;10.89;67.31934;95414.64;;;;
2022/05/22 03:44:39;;;;;;;4.75;4.349999;;;;;;;10.89;67.31934;95414.64;;;;
2022/05/22 03:45:39;;;;;;;4.75;4.349999;;;;;;;10.89;67.31934;95414.64;;;;
2022/05/22 03:46:40;;;;;;;4.75;4.349999;;;;;;;10.89;67.31934;95414.64;;;;
2022/05/22 03:47:40;;;;;;;4.75;4.349999;;;;;;;10.89;67.31934;95414.64;;;;
2022/05/22 03:48:42;;;;;;;5.5;4.699999;;;;;;;10.89;67.57813;95407.62;;;;
2022/05/22 03:49:42;;;;;;;5.5;4.699999;;;;;;;10.89;67.57813;95407.62;;;;
2022/05/22 03:50:43;;;;;;;5.5;4.699999;;;;;;;10.89;67.57813;95407.62;;;;
2022/05/22 03:51:46;;;;;;;5.5;4.699999;;;;;;;10.89;67.57813;95407.62;;;;
2022/05/22 03:52:47;;;;;;;5.5;4.699999;;;;;;;10.89;67.57813;95407.62;;;;
2022/05/22 03:53:47;;;;;;;5.5;4.699999;;;;;;;10.89;67.57813;95407.62;;;;
2022/05/22 03:54:48;;;;;;;5.5;4.699999;;;;;;;10.89;67.57813;95407.62;;;;
2022/05/22 03:55:48;;;;;;;5.5;4.699999;;;;;;;10.89;67.57813;95407.62;;;;
2022/05/22 03:56:49;;;;;;;5.5;4.699999;;;;;;;10.89;67.57813;95407.62;;;;
2022/05/22 03:57:49;;;;;;;5.5;4.699999;;;;;;;10.89;67.57813;95407.62;;;;
2022/05/22 03:58:50;;;;;;;5.5;4.699999;;;;;;;10.89;67.57813;95407.62;;;;
2022/05/22 03:59:50;;;;;;;5.55;4.95;;;;;;;10.93;67.70313;95407.08;;;;
2022/05/22 04:00:51;;;;;;;5.55;4.95;;;;;;;10.93;67.70313;95407.08;;;;
2022/05/22 04:01:51;;;;;;;5.55;4.95;;;;;;;10.93;67.70313;95407.08;;;;
2022/05/22 04:02:52;;;;;;;5.55;4.95;;;;;;;10.93;67.70313;95407.08;;;;
2022/05/22 04:03:53;;;;;;;5.55;4.95;;;;;;;10.93;67.70313;95407.08;;;;
2022/05/22 04:04:54;;;;;;;5.55;4.95;;;;;;;10.93;67.70313;95407.08;;;;
2022/05/22 04:05:54;;;;;;;5.55;4.95;;;;;;;10.93;67.70313;95407.08;;;;
2022/05/22 04:06:55;;;;;;;5.55;4.95;;;;;;;10.93;67.70313;95407.08;;;;
2022/05/22 04:07:56;;;;;;;5.55;4.95;;;;;;;10.93;67.70313;95407.08;;;;
2022/05/22 04:08:56;;;;;;;5.55;4.95;;;;;;;10.93;67.70313;95407.08;;;;
2022/05/22 04:09:56;;;;;;;5.55;4.95;;;;;;;10.93;67.70313;95407.08;;;;
2022/05/22 04:10:57;;;;;;;5.6;4.6;;;;;;;11.09;67.76172;95404.75;;;;
2022/05/22 04:12:05;;;;;;;5.6;4.6;;;;;;;11.09;67.76172;95404.75;;;;
2022/05/22 04:13:07;;;;;;;5.6;4.6;;;;;;;11.09;67.76172;95404.75;;;;
2022/05/22 04:14:07;;;;;;;5.6;4.6;;;;;;;11.09;67.76172;95404.75;;;;
2022/05/22 04:15:09;;;;;;;5.6;4.6;;;;;;;11.09;67.76172;95404.75;;;;
2022/05/22 04:16:13;;;;;;;5.6;4.6;;;;;;;11.09;67.76172;95404.75;;;;
2022/05/22 04:17:13;;;;;;;5.6;4.6;;;;;;;11.09;67.76172;95404.75;;;;
2022/05/22 04:18:14;;;;;;;5.6;4.6;;;;;;;11.09;67.76172;95404.75;;;;
2022/05/22 04:19:15;;;;;;;5.6;4.6;;;;;;;11.09;67.76172;95404.75;;;;
2022/05/22 04:20:16;;;;;;;5.6;4.6;;;;;;;11.09;67.76172;95404.75;;;;
2022/05/22 04:21:17;;;;;;;6.3;5.25;;;;;;;11.46;67.63477;95396.89;;;;
2022/05/22 04:22:17;;;;;;;6.3;5.25;;;;;;;11.46;67.63477;95396.89;;;;
2022/05/22 04:28:29;;;;;;;6.3;5.25;;;;;;;11.46;67.63477;95396.89;;;;
2022/05/22 04:29:30;;;;;;;6.3;5.25;;;;;;;11.46;67.63477;95396.89;;;;
2022/05/22 04:30:31;;;;;;;6.3;5.25;;;;;;;11.46;67.63477;95396.89;;;;
2022/05/22 04:31:31;;;;;;;6.05;5.45;;;;;;;11.9;67.32422;95401.67;;;;
2022/05/22 04:32:32;;;;;;;6.05;5.45;;;;;;;11.9;67.32422;95401.67;;;;
2022/05/22 04:33:32;;;;;;;6.05;5.45;;;;;;;11.9;67.32422;95401.67;;;;
2022/05/22 04:34:33;;;;;;;6.05;5.45;;;;;;;11.9;67.32422;95401.67;;;;
2022/05/22 04:35:35;;;;;;;6.05;5.45;;;;;;;11.9;67.32422;95401.67;;;;
2022/05/22 04:36:35;;;;;;;6.05;5.45;;;;;;;11.9;67.32422;95401.67;;;;
2022/05/22 04:37:36;;;;;;;6.05;5.45;;;;;;;11.9;67.32422;95401.67;;;;
2022/05/22 04:38:36;;;;;;;6.05;5.45;;;;;;;11.9;67.32422;95401.67;;;;
2022/05/22 04:39:37;;;;;;;6.05;5.45;;;;;;;11.9;67.32422;95401.67;;;;
2022/05/22 04:40:37;;;;;;;6.05;5.45;;;;;;;11.9;67.32422;95401.67;;;;
2022/05/22 04:41:38;;;;;;;6.05;5.45;;;;;;;11.9;67.32422;95401.67;;;;
2022/05/22 04:42:39;;;;;;;5.8;5.25;;;;;;;11.99;67.40332;95403.03;;;;
2022/05/22 04:43:40;;;;;;;5.8;5.25;;;;;;;11.99;67.40332;95403.03;;;;
2022/05/22 04:44:40;;;;;;;5.8;5.25;;;;;;;11.99;67.40332;95403.03;;;;
2022/05/22 04:45:42;;;;;;;5.8;5.25;;;;;;;11.99;67.40332;95403.03;;;;
2022/05/22 04:46:42;;;;;;;5.8;5.25;;;;;;;11.99;67.40332;95403.03;;;;
2022/05/22 04:47:43;;;;;;;5.8;5.25;;;;;;;11.99;67.40332;95403.03;;;;
2022/05/22 04:48:43;;;;;;;5.8;5.25;;;;;;;11.99;67.40332;95403.03;;;;
2022/05/22 04:49:44;;;;;;;5.8;5.25;;;;;;;11.99;67.40332;95403.03;;;;
2022/05/22 04:50:48;;;;;;;5.8;5.25;;;;;;;11.99;67.40332;95403.03;;;;
2022/05/22 04:51:50;;;;;;;5.8;5.25;;;;;;;11.99;67.40332;95403.03;;;;
2022/05/22 04:52:50;;;;;;;6.149999;5.55;;;;;;;12.14;67.59863;95409.33;;;;
2022/05/22 04:53:51;;;;;;;6.149999;5.55;;;;;;;12.14;67.59863;95409.33;;;;
2022/05/22 04:54:52;;;;;;;6.149999;5.55;;;;;;;12.14;67.59863;95409.33;;;;
2022/05/22 04:55:52;;;;;;;6.149999;5.55;;;;;;;12.14;67.59863;95409.33;;;;
2022/05/22 04:56:53;;;;;;;6.149999;5.55;;;;;;;12.14;67.59863;95409.33;;;;
2022/05/22 04:57:54;;;;;;;6.149999;5.55;;;;;;;12.14;67.59863;95409.33;;;;
2022/05/22 04:58:54;;;;;;;6.149999;5.55;;;;;;;12.14;67.59863;95409.33;;;;
2022/05/22 04:59:55;;;;;;;6.149999;5.55;;;;;;;12.14;67.59863;95409.33;;;;
2022/05/22 05:00:55;;;;;;;6.149999;5.55;;;;;;;12.14;67.59863;95409.33;;;;
2022/05/22 05:01:56;;;;;;;6.149999;5.55;;;;;;;12.14;67.59863;95409.33;;;;
2022/05/22 05:02:56;;;;;;;6.149999;5.55;;;;;;;12.14;67.59863;95409.33;;;;
2022/05/22 05:03:56;;;;;;;5.9;5.15;;;;;;;12.37;67.64551;95403.67;;;;
2022/05/22 05:04:57;;;;;;;5.9;5.15;;;;;;;12.37;67.64551;95403.67;;;;
2022/05/22 05:05:58;;;;;;;5.9;5.15;;;;;;;12.37;67.64551;95403.67;;;;
2022/05/22 05:06:59;;;;;;;5.9;5.15;;;;;;;12.37;67.64551;95403.67;;;;
2022/05/22 05:08:04;;;;;;;5.9;5.15;;;;;;;12.37;67.64551;95403.67;;;;
2022/05/22 05:09:04;;;;;;;5.9;5.15;;;;;;;12.37;67.64551;95403.67;;;;
2022/05/22 05:10:05;;;;;;;5.9;5.15;;;;;;;12.37;67.64551;95403.67;;;;
2022/05/22 05:11:07;;;;;;;5.9;5.15;;;;;;;12.37;67.64551;95403.67;;;;
2022/05/22 05:12:10;;;;;;;5.9;5.15;;;;;;;12.37;67.64551;95403.67;;;;
2022/05/22 05:13:11;;;;;;;5.9;5.15;;;;;;;12.37;67.64551;95403.67;;;;
2022/05/22 05:14:11;;;;;;;5.6;4.799999;;;;;;;12.74;67.48438;95392.16;;;;
2022/05/22 05:15:12;;;;;;;5.6;4.799999;;;;;;;12.74;67.48438;95392.16;;;;
2022/05/22 05:16:14;;;;;;;5.6;4.799999;;;;;;;12.74;67.48438;95392.16;;;;
2022/05/22 05:17:14;;;;;;;5.6;4.799999;;;;;;;12.74;67.48438;95392.16;;;;
2022/05/22 05:18:18;;;;;;;5.6;4.799999;;;;;;;12.74;67.48438;95392.16;;;;
2022/05/22 05:19:18;;;;;;;5.6;4.799999;;;;;;;12.74;67.48438;95392.16;;;;
2022/05/22 05:20:20;;;;;;;5.6;4.799999;;;;;;;12.74;67.48438;95392.16;;;;
2022/05/22 05:21:21;;;;;;;5.6;4.799999;;;;;;;12.74;67.48438;95392.16;;;;
2022/05/22 05:22:21;;;;;;;5.6;4.799999;;;;;;;12.74;67.48438;95392.16;;;;
2022/05/22 05:23:22;;;;;;;5.6;4.799999;;;;;;;12.74;67.48438;95392.16;;;;
2022/05/22 05:24:22;;;;;;;5.6;4.799999;;;;;;;12.74;67.48438;95392.16;;;;
2022/05/22 05:25:23;;;;;;;5;4.5;;;;;;;13.09;67.21484;95375.41;;;;
2022/05/22 05:26:23;;;;;;;5;4.5;;;;;;;13.09;67.21484;95375.41;;;;
2022/05/22 05:27:24;;;;;;;5;4.5;;;;;;;13.09;67.21484;95375.41;;;;
2022/05/22 05:28:25;;;;;;;5;4.5;;;;;;;13.09;67.21484;95375.41;;;;
2022/05/22 05:29:26;;;;;;;5;4.5;;;;;;;13.09;67.21484;95375.41;;;;
2022/05/22 05:30:27;;;;;;;5;4.5;;;;;;;13.09;67.21484;95375.41;;;;
2022/05/22 05:31:28;;;;;;;5;4.5;;;;;;;13.09;67.21484;95375.41;;;;
2022/05/22 05:32:28;;;;;;;5;4.5;;;;;;;13.09;67.21484;95375.41;;;;
2022/05/22 05:33:29;;;;;;;5;4.5;;;;;;;13.09;67.21484;95375.41;;;;
2022/05/22 05:34:31;;;;;;;5;4.5;;;;;;;13.09;67.21484;95375.41;;;;
2022/05/22 05:35:31;;;;;;;6.25;4.149999;;;;;;;13.54;66.89258;95371.78;;;;
2022/05/22 05:36:32;;;;;;;6.25;4.149999;;;;;;;13.54;66.89258;95371.78;;;;
2022/05/22 05:37:33;;;;;;;6.25;4.149999;;;;;;;13.54;66.89258;95371.78;;;;
2022/05/22 05:38:34;;;;;;;6.25;4.149999;;;;;;;13.54;66.89258;95371.78;;;;
2022/05/22 05:39:35;;;;;;;6.25;4.149999;;;;;;;13.54;66.89258;95371.78;;;;
2022/05/22 05:40:35;;;;;;;6.25;4.149999;;;;;;;13.54;66.89258;95371.78;;;;
2022/05/22 05:41:36;;;;;;;6.25;4.149999;;;;;;;13.54;66.89258;95371.78;;;;
2022/05/22 05:42:37;;;;;;;6.25;4.149999;;;;;;;13.54;66.89258;95371.78;;;;
2022/05/22 05:43:37;;;;;;;6.25;4.149999;;;;;;;13.54;66.89258;95371.78;;;;
2022/05/22 05:44:37;;;;;;;6.25;4.149999;;;;;;;13.54;66.89258;95371.78;;;;
2022/05/22 05:45:38;;;;;;;6.25;4.149999;;;;;;;13.54;66.89258;95371.78;;;;
2022/05/22 05:46:39;;;;;;;5.05;4;;;;;;;13.98;66.4375;95374.34;;;;
2022/05/22 05:47:39;;;;;;;5.05;4;;;;;;;13.98;66.4375;95374.34;;;;
2022/05/22 05:48:40;;;;;;;5.05;4;;;;;;;13.98;66.4375;95374.34;;;;
2022/05/22 05:49:40;;;;;;;5.05;4;;;;;;;13.98;66.4375;95374.34;;;;
2022/05/22 05:50:41;;;;;;;5.05;4;;;;;;;13.98;66.4375;95374.34;;;;
2022/05/22 05:51:42;;;;;;;5.05;4;;;;;;;13.98;66.4375;95374.34;;;;